Time;durP1;ratioP1;P1;durP2;ratioP2;P2;SDS_P1;SDS_P2;PMS_P1;PMS_P2;Temp;Humidity;BMP_temperature;BMP_pressure;BME280_temperature;BME280_humidity;BME280_pressure;Samples;Min_cycle;Max_cycle;Signal;HPM_P1;HPM_P2
2023/03/23 00:01:50;;;;;;;2.63;1.10;;;;;;;;;;5010064;28;20054;-69
2023/03/23 00:04:17;;;;;;;1.67;1.17;;;;;;;;;;5009867;28;20116;-68
2023/03/23 00:06:45;;;;;;;3.50;1.58;;;;;;;;;;5010260;28;20056;-68
2023/03/23 00:09:12;;;;;;;5.65;1.15;;;;;;;;;;5009721;28;20475;-69
2023/03/23 00:11:38;;;;;;;2.13;1.00;;;;;;;;;;5010247;28;20053;-68
2023/03/23 00:14:06;;;;;;;1.65;1.20;;;;;;;;;;5009488;28;20052;-71
2023/03/23 00:16:37;;;;;;;1.50;1.00;;;;;;;;;;5009346;28;20042;-68
2023/03/23 00:19:05;;;;;;;1.48;1.25;;;;;;;;;;5009844;28;20046;-69
2023/03/23 00:21:34;;;;;;;1.92;1.20;;;;;;;;;;5009625;28;20050;-69
2023/03/23 00:24:04;;;;;;;2.10;1.00;;;;;;;;;;5009696;28;20050;-68
2023/03/23 00:26:33;;;;;;;3.95;1.30;;;;;;;;;;5010547;28;20396;-68
2023/03/23 00:29:00;;;;;;;2.45;1.15;;;;;;;;;;5010057;28;20483;-69
2023/03/23 00:31:31;;;;;;;1.42;0.90;;;;;;;;;;5009975;28;20053;-68
2023/03/23 00:34:00;;;;;;;1.00;0.85;;;;;;;;;;5010157;28;20049;-69
2023/03/23 00:36:28;;;;;;;3.40;1.20;;;;;;;;;;5009311;28;20050;-68
2023/03/23 00:38:57;;;;;;;1.92;1.00;;;;;;;;;;5009323;28;20103;-68
2023/03/23 00:41:26;;;;;;;2.00;1.80;;;;;;;;;;5008986;28;20096;-69
2023/03/23 00:43:53;;;;;;;1.95;1.20;;;;;;;;;;5010020;28;20511;-68
2023/03/23 00:46:20;;;;;;;1.70;1.00;;;;;;;;;;5009221;28;20410;-69
2023/03/23 00:48:47;;;;;;;1.38;1.00;;;;;;;;;;5009602;28;20339;-68
2023/03/23 00:51:15;;;;;;;1.98;1.30;;;;;;;;;;5009067;28;20049;-68
2023/03/23 00:53:42;;;;;;;2.63;1.17;;;;;;;;;;5009441;28;20049;-69
2023/03/23 00:56:09;;;;;;;3.22;1.10;;;;;;;;;;5008618;28;20049;-67
2023/03/23 00:58:36;;;;;;;1.70;1.00;;;;;;;;;;5009154;28;20415;-68
2023/03/23 01:01:04;;;;;;;2.28;1.00;;;;;;;;;;5009195;28;20049;-68
2023/03/23 01:03:31;;;;;;;1.73;1.10;;;;;;;;;;5009147;28;20053;-68
2023/03/23 01:05:57;;;;;;;2.65;1.30;;;;;;;;;;5008924;28;20492;-67
2023/03/23 01:08:27;;;;;;;1.70;1.08;;;;;;;;;;5009362;28;20487;-67
2023/03/23 01:11:03;;;;;;;1.20;1.10;;;;;;;;;;5008699;28;20069;-67
2023/03/23 01:13:29;;;;;;;1.73;1.13;;;;;;;;;;5009153;28;20559;-67
2023/03/23 01:15:56;;;;;;;1.15;1.00;;;;;;;;;;5008675;28;20070;-68
2023/03/23 01:18:23;;;;;;;3.60;1.50;;;;;;;;;;5008695;28;20046;-68
2023/03/23 01:20:49;;;;;;;1.77;1.20;;;;;;;;;;5009026;28;20046;-69
2023/03/23 01:23:16;;;;;;;3.28;1.10;;;;;;;;;;5008588;28;20084;-69
2023/03/23 01:25:45;;;;;;;2.83;1.40;;;;;;;;;;5008668;28;20060;-70
2023/03/23 01:28:12;;;;;;;2.70;1.23;;;;;;;;;;5008750;28;20085;-70
2023/03/23 01:30:38;;;;;;;3.05;1.20;;;;;;;;;;5009216;28;20119;-69
2023/03/23 01:33:05;;;;;;;1.52;1.30;;;;;;;;;;5008958;28;20045;-70
2023/03/23 01:35:31;;;;;;;2.30;1.23;;;;;;;;;;5008532;28;20045;-70
2023/03/23 01:37:58;;;;;;;1.60;1.13;;;;;;;;;;5008343;28;20046;-70
2023/03/23 01:40:27;;;;;;;2.03;1.30;;;;;;;;;;5008727;28;20042;-69
2023/03/23 01:42:55;;;;;;;3.92;1.40;;;;;;;;;;5008460;28;20050;-68
2023/03/23 01:45:26;;;;;;;2.22;1.35;;;;;;;;;;5008637;28;20072;-69
2023/03/23 01:48:00;;;;;;;1.83;1.50;;;;;;;;;;5008417;28;20049;-68
2023/03/23 01:50:29;;;;;;;3.83;1.50;;;;;;;;;;5008539;28;20042;-69
2023/03/23 01:52:58;;;;;;;1.40;1.20;;;;;;;;;;5008142;28;20050;-69
2023/03/23 01:55:28;;;;;;;2.13;1.35;;;;;;;;;;5008342;28;20076;-69
2023/03/23 01:57:57;;;;;;;1.50;1.40;;;;;;;;;;5008138;28;20571;-68
2023/03/23 02:00:25;;;;;;;2.88;1.63;;;;;;;;;;5008476;28;20050;-69
2023/03/23 02:02:53;;;;;;;1.70;1.30;;;;;;;;;;5008348;28;20484;-69
2023/03/23 02:05:25;;;;;;;2.10;1.70;;;;;;;;;;5008539;28;20505;-69
2023/03/23 02:07:53;;;;;;;2.55;1.40;;;;;;;;;;5008663;28;20046;-68
2023/03/23 02:10:20;;;;;;;3.08;1.30;;;;;;;;;;5008062;28;20046;-69
2023/03/23 02:12:47;;;;;;;1.50;1.40;;;;;;;;;;5008249;28;20042;-69
2023/03/23 02:15:15;;;;;;;2.53;1.60;;;;;;;;;;5007943;28;20632;-69
2023/03/23 02:17:50;;;;;;;1.73;1.45;;;;;;;;;;5008201;28;20056;-69
2023/03/23 02:20:39;;;;;;;2.38;1.50;;;;;;;;;;5008299;28;20042;-69
2023/03/23 02:23:24;;;;;;;2.83;1.42;;;;;;;;;;5008489;28;20056;-70
2023/03/23 02:26:03;;;;;;;1.83;1.30;;;;;;;;;;5008044;28;20053;-69
2023/03/23 02:28:57;;;;;;;2.13;1.40;;;;;;;;;;5008054;28;20059;-69
2023/03/23 02:31:44;;;;;;;1.83;1.40;;;;;;;;;;5008471;28;20137;-69
2023/03/23 02:34:17;;;;;;;3.63;1.48;;;;;;;;;;5007886;28;20546;-69
2023/03/23 02:36:48;;;;;;;2.30;1.50;;;;;;;;;;5008408;28;20589;-70
2023/03/23 02:39:22;;;;;;;2.13;1.42;;;;;;;;;;5010459;28;20046;-69
2023/03/23 02:41:53;;;;;;;1.98;1.48;;;;;;;;;;5011720;28;20495;-69
2023/03/23 02:44:20;;;;;;;5.00;1.48;;;;;;;;;;5011351;28;20052;-70
2023/03/23 02:46:48;;;;;;;2.05;1.50;;;;;;;;;;5010825;28;20057;-68
2023/03/23 02:49:18;;;;;;;2.72;1.63;;;;;;;;;;5011379;28;20042;-69
2023/03/23 02:51:47;;;;;;;1.77;1.30;;;;;;;;;;5010679;28;20053;-69
2023/03/23 02:54:16;;;;;;;1.80;1.60;;;;;;;;;;5010985;28;20057;-69
2023/03/23 02:56:44;;;;;;;4.13;1.70;;;;;;;;;;5010507;28;20054;-69
2023/03/23 02:59:11;;;;;;;2.35;1.48;;;;;;;;;;5011181;28;20045;-69
2023/03/23 03:02:01;;;;;;;2.65;1.55;;;;;;;;;;5010874;28;20057;-69
2023/03/23 03:04:34;;;;;;;2.95;1.50;;;;;;;;;;5011263;28;20050;-68
2023/03/23 03:07:35;;;;;;;1.50;1.33;;;;;;;;;;5011134;28;20050;-69
2023/03/23 03:10:07;;;;;;;3.20;1.50;;;;;;;;;;5011181;28;20119;-69
2023/03/23 03:12:42;;;;;;;2.67;1.70;;;;;;;;;;5010861;28;20046;-69
2023/03/23 03:15:17;;;;;;;3.00;1.65;;;;;;;;;;5010747;28;20053;-69
2023/03/23 03:17:50;;;;;;;2.47;1.42;;;;;;;;;;5010171;28;20103;-69
2023/03/23 03:20:19;;;;;;;2.38;1.45;;;;;;;;;;5010966;28;20049;-69
2023/03/23 03:22:47;;;;;;;1.60;1.35;;;;;;;;;;5010081;28;20049;-69
2023/03/23 03:25:16;;;;;;;1.73;1.33;;;;;;;;;;5010836;28;20480;-69
2023/03/23 03:27:45;;;;;;;2.00;1.77;;;;;;;;;;5010461;28;20057;-69
2023/03/23 03:30:16;;;;;;;1.65;1.50;;;;;;;;;;5010597;28;20042;-68
2023/03/23 03:32:48;;;;;;;2.05;1.65;;;;;;;;;;5010143;28;20046;-69
2023/03/23 03:35:15;;;;;;;1.98;1.50;;;;;;;;;;5010364;28;20056;-69
2023/03/23 03:37:44;;;;;;;3.03;1.80;;;;;;;;;;5009929;28;20046;-69
2023/03/23 03:40:15;;;;;;;4.07;1.73;;;;;;;;;;5010632;28;20053;-70
2023/03/23 03:42:44;;;;;;;2.50;1.67;;;;;;;;;;5010100;28;20060;-68
2023/03/23 03:45:13;;;;;;;2.65;1.80;;;;;;;;;;5010834;28;20047;-69
2023/03/23 03:47:40;;;;;;;4.00;1.77;;;;;;;;;;5010203;28;20054;-68
2023/03/23 03:50:08;;;;;;;3.05;1.75;;;;;;;;;;5009109;28;20045;-70
2023/03/23 03:52:35;;;;;;;3.25;1.83;;;;;;;;;;5009999;28;20460;-69
2023/03/23 03:55:03;;;;;;;2.55;1.50;;;;;;;;;;5010143;28;20050;-69
2023/03/23 03:57:30;;;;;;;1.95;1.67;;;;;;;;;;5010079;28;20061;-69
2023/03/23 03:59:56;;;;;;;2.25;1.60;;;;;;;;;;5010109;28;20483;-68
2023/03/23 04:02:23;;;;;;;2.53;1.77;;;;;;;;;;5010411;28;20475;-69
2023/03/23 04:04:52;;;;;;;3.55;1.80;;;;;;;;;;5009846;28;20392;-69
2023/03/23 04:07:19;;;;;;;2.92;1.52;;;;;;;;;;5010002;28;20134;-68
2023/03/23 04:09:47;;;;;;;3.55;1.90;;;;;;;;;;5009785;28;20053;-69
2023/03/23 04:12:15;;;;;;;2.55;1.70;;;;;;;;;;5009903;28;20053;-69
2023/03/23 04:14:42;;;;;;;2.67;1.70;;;;;;;;;;5009723;28;20042;-69
2023/03/23 04:17:10;;;;;;;1.80;1.40;;;;;;;;;;5010074;28;20042;-69
2023/03/23 04:19:37;;;;;;;3.08;1.83;;;;;;;;;;5009814;28;20046;-69
2023/03/23 04:22:04;;;;;;;3.25;1.65;;;;;;;;;;5021290;23;20050;-68
2023/03/23 04:24:33;;;;;;;3.38;1.92;;;;;;;;;;5008999;28;20041;-68
2023/03/23 04:27:00;;;;;;;2.28;1.73;;;;;;;;;;5009738;28;20049;-67
2023/03/23 04:29:28;;;;;;;3.72;1.80;;;;;;;;;;5009504;28;20050;-67
2023/03/23 04:31:55;;;;;;;2.25;1.73;;;;;;;;;;5009746;28;20054;-68
2023/03/23 04:34:23;;;;;;;2.95;1.70;;;;;;;;;;5008800;28;20046;-67
2023/03/23 04:36:50;;;;;;;2.63;1.70;;;;;;;;;;5009091;28;20561;-68
2023/03/23 04:39:17;;;;;;;3.03;2.10;;;;;;;;;;5009468;28;20050;-68
2023/03/23 04:41:45;;;;;;;2.75;1.65;;;;;;;;;;5009513;28;20435;-68
2023/03/23 04:44:17;;;;;;;2.42;1.77;;;;;;;;;;5009568;28;20129;-67
2023/03/23 04:46:49;;;;;;;4.38;1.90;;;;;;;;;;5009851;28;20053;-67
2023/03/23 04:49:20;;;;;;;3.07;1.67;;;;;;;;;;5009906;28;20140;-67
2023/03/23 04:51:47;;;;;;;1.90;1.70;;;;;;;;;;5009200;28;20294;-67
2023/03/23 04:54:14;;;;;;;2.80;1.50;;;;;;;;;;5009320;28;20049;-67
2023/03/23 04:56:41;;;;;;;2.40;1.88;;;;;;;;;;5009250;28;20046;-67
2023/03/23 04:59:08;;;;;;;2.70;1.67;;;;;;;;;;5009262;28;20045;-68
2023/03/23 05:01:36;;;;;;;3.17;2.00;;;;;;;;;;5008433;28;20099;-68
2023/03/23 05:04:04;;;;;;;2.17;1.70;;;;;;;;;;5009056;28;20064;-68
2023/03/23 05:06:31;;;;;;;2.95;1.98;;;;;;;;;;5008731;28;20057;-67
2023/03/23 05:08:57;;;;;;;2.15;1.80;;;;;;;;;;5009031;28;20068;-67
2023/03/23 05:11:25;;;;;;;1.83;1.70;;;;;;;;;;5008693;28;20057;-68
2023/03/23 05:13:51;;;;;;;2.33;1.80;;;;;;;;;;5009238;28;20093;-67
2023/03/23 05:16:18;;;;;;;2.88;1.90;;;;;;;;;;5008355;28;20046;-67
2023/03/23 05:18:46;;;;;;;2.47;1.67;;;;;;;;;;5008824;28;20501;-67
2023/03/23 05:21:15;;;;;;;2.17;1.77;;;;;;;;;;5008277;28;20498;-68
2023/03/23 05:23:42;;;;;;;3.53;1.98;;;;;;;;;;5008705;28;20072;-68
2023/03/23 05:26:08;;;;;;;2.88;1.60;;;;;;;;;;5008262;28;20050;-67
2023/03/23 05:28:36;;;;;;;2.10;1.60;;;;;;;;;;5008561;28;20046;-67
2023/03/23 05:31:03;;;;;;;3.20;1.90;;;;;;;;;;5008843;28;20456;-68
2023/03/23 05:33:29;;;;;;;3.25;1.60;;;;;;;;;;5008339;28;20050;-67
2023/03/23 05:35:56;;;;;;;3.05;1.60;;;;;;;;;;5008584;28;20406;-67
2023/03/23 05:38:24;;;;;;;2.85;1.80;;;;;;;;;;5007751;28;20129;-67
2023/03/23 05:40:52;;;;;;;3.25;1.92;;;;;;;;;;5008481;28;20064;-67
2023/03/23 05:43:18;;;;;;;2.88;1.75;;;;;;;;;;5008237;28;20129;-67
2023/03/23 05:45:45;;;;;;;2.10;1.52;;;;;;;;;;5008374;28;20476;-68
2023/03/23 05:48:11;;;;;;;2.80;1.60;;;;;;;;;;5007700;28;20054;-67
2023/03/23 05:50:38;;;;;;;4.65;1.65;;;;;;;;;;5008743;28;20056;-67
2023/03/23 05:53:05;;;;;;;2.22;1.60;;;;;;;;;;5008231;28;20053;-68
2023/03/23 05:55:33;;;;;;;3.88;1.58;;;;;;;;;;5008601;28;20046;-67
2023/03/23 05:58:00;;;;;;;2.47;1.90;;;;;;;;;;5007995;28;20107;-68
2023/03/23 06:00:29;;;;;;;3.40;1.67;;;;;;;;;;5008460;28;20052;-67
2023/03/23 06:02:57;;;;;;;2.30;1.60;;;;;;;;;;5007671;28;20136;-68
2023/03/23 06:05:25;;;;;;;2.28;2.00;;;;;;;;;;5007939;28;20049;-67
2023/03/23 06:07:52;;;;;;;5.47;2.17;;;;;;;;;;5007810;28;20046;-67
2023/03/23 06:10:18;;;;;;;2.50;1.80;;;;;;;;;;5008291;28;20042;-67
2023/03/23 06:12:46;;;;;;;3.85;2.20;;;;;;;;;;5007392;28;20046;-67
2023/03/23 06:15:14;;;;;;;2.67;1.88;;;;;;;;;;5007757;28;20046;-68
2023/03/23 06:17:41;;;;;;;2.30;1.80;;;;;;;;;;5007962;28;20041;-67
2023/03/23 06:20:09;;;;;;;3.55;2.40;;;;;;;;;;5007833;28;20056;-67
2023/03/23 06:22:37;;;;;;;3.88;2.13;;;;;;;;;;5007768;28;20082;-67
2023/03/23 06:25:05;;;;;;;3.15;2.03;;;;;;;;;;5007650;28;20050;-67
2023/03/23 06:27:31;;;;;;;2.15;1.88;;;;;;;;;;5008214;28;20466;-67
2023/03/23 06:29:59;;;;;;;3.50;2.22;;;;;;;;;;5007488;28;20046;-68
2023/03/23 06:32:29;;;;;;;3.30;2.40;;;;;;;;;;5007873;28;20075;-67
2023/03/23 06:34:56;;;;;;;3.72;2.20;;;;;;;;;;5007336;28;20141;-67
2023/03/23 06:37:24;;;;;;;2.17;1.90;;;;;;;;;;5007461;28;20046;-68
2023/03/23 06:39:51;;;;;;;4.43;2.78;;;;;;;;;;5007143;28;20045;-67
2023/03/23 06:42:18;;;;;;;4.28;2.00;;;;;;;;;;5007629;28;20050;-67
2023/03/23 06:44:45;;;;;;;3.22;1.92;;;;;;;;;;5007559;28;20471;-67
2023/03/23 06:47:13;;;;;;;2.65;1.83;;;;;;;;;;5007646;28;20082;-67
2023/03/23 06:49:40;;;;;;;3.35;2.03;;;;;;;;;;5007215;28;20080;-68
2023/03/23 06:52:07;;;;;;;2.70;2.00;;;;;;;;;;5007912;28;20077;-67
2023/03/23 06:54:33;;;;;;;4.35;2.13;;;;;;;;;;5007616;28;20048;-68
2023/03/23 06:57:00;;;;;;;2.63;2.10;;;;;;;;;;5007388;28;20046;-67
2023/03/23 06:59:27;;;;;;;2.35;1.75;;;;;;;;;;5007528;28;20042;-68
2023/03/23 07:01:54;;;;;;;3.47;1.88;;;;;;;;;;5007819;28;20660;-68
2023/03/23 07:04:23;;;;;;;3.05;1.83;;;;;;;;;;5007681;28;20479;-67
2023/03/23 07:06:50;;;;;;;1.77;1.67;;;;;;;;;;5007284;28;20464;-67
2023/03/23 07:09:16;;;;;;;2.10;1.70;;;;;;;;;;5007833;28;20046;-67
2023/03/23 07:11:43;;;;;;;2.65;1.98;;;;;;;;;;5006874;28;20050;-67
2023/03/23 07:14:10;;;;;;;4.57;2.00;;;;;;;;;;5007201;28;20054;-67
2023/03/23 07:16:37;;;;;;;2.72;1.83;;;;;;;;;;5007317;28;20046;-67
2023/03/23 07:19:03;;;;;;;4.10;1.75;;;;;;;;;;5006839;28;20057;-68
2023/03/23 07:21:31;;;;;;;2.03;1.55;;;;;;;;;;5007080;28;20046;-66
2023/03/23 07:23:58;;;;;;;1.85;1.63;;;;;;;;;;4997486;28;20133;-68
2023/03/23 07:26:25;;;;;;;2.00;1.70;;;;;;;;;;5002401;28;20208;-68
2023/03/23 07:28:51;;;;;;;2.25;1.48;;;;;;;;;;4996209;28;20050;-68
2023/03/23 07:31:18;;;;;;;3.38;1.98;;;;;;;;;;4990220;28;20042;-68
2023/03/23 07:33:45;;;;;;;2.33;1.58;;;;;;;;;;4990685;28;20046;-68
2023/03/23 07:36:12;;;;;;;2.60;1.70;;;;;;;;;;4990524;28;20515;-67
2023/03/23 07:38:40;;;;;;;1.73;1.42;;;;;;;;;;4990622;28;20529;-68
2023/03/23 07:41:07;;;;;;;2.78;1.73;;;;;;;;;;4990136;28;20072;-67
2023/03/23 07:43:33;;;;;;;1.75;1.40;;;;;;;;;;4990408;28;20046;-67
2023/03/23 07:46:00;;;;;;;1.67;1.33;;;;;;;;;;4990032;28;20050;-68
2023/03/23 07:48:27;;;;;;;2.38;1.30;;;;;;;;;;4995799;28;20483;-68
2023/03/23 07:50:54;;;;;;;3.08;1.63;;;;;;;;;;5008615;28;20450;-67
2023/03/23 07:53:21;;;;;;;2.60;2.00;;;;;;;;;;5009698;28;20071;-68
2023/03/23 07:55:49;;;;;;;2.03;1.48;;;;;;;;;;4995796;28;20484;-68
2023/03/23 07:58:18;;;;;;;1.83;1.30;;;;;;;;;;4989384;28;20411;-68
2023/03/23 08:00:46;;;;;;;1.83;1.30;;;;;;;;;;4994776;28;20080;-68
2023/03/23 08:03:13;;;;;;;1.98;1.55;;;;;;;;;;5009347;28;20083;-67
2023/03/23 08:05:41;;;;;;;1.90;1.20;;;;;;;;;;5007924;28;20391;-68
2023/03/23 08:08:09;;;;;;;1.23;1.13;;;;;;;;;;4989781;28;20054;-67
2023/03/23 08:10:36;;;;;;;1.77;1.27;;;;;;;;;;5008215;28;20050;-67
2023/03/23 08:13:05;;;;;;;1.27;1.15;;;;;;;;;;5008822;28;20048;-67
2023/03/23 08:15:37;;;;;;;1.08;0.90;;;;;;;;;;5007901;28;20136;-67
2023/03/23 08:18:04;;;;;;;1.48;1.00;;;;;;;;;;5008500;28;20411;-67
2023/03/23 08:20:32;;;;;;;1.45;1.15;;;;;;;;;;5008183;28;20056;-67
2023/03/23 08:22:59;;;;;;;2.95;1.25;;;;;;;;;;4990023;28;20046;-67
2023/03/23 08:25:26;;;;;;;1.52;1.30;;;;;;;;;;5007470;28;20057;-68
2023/03/23 08:27:53;;;;;;;1.95;1.30;;;;;;;;;;5008463;28;20057;-68
2023/03/23 08:30:24;;;;;;;2.70;1.15;;;;;;;;;;5007963;28;20058;-68
2023/03/23 08:32:51;;;;;;;2.85;1.15;;;;;;;;;;5008146;28;20050;-67
2023/03/23 08:35:19;;;;;;;2.40;1.30;;;;;;;;;;5008539;28;20046;-68
2023/03/23 08:37:50;;;;;;;1.35;1.10;;;;;;;;;;5005455;28;20072;-68
2023/03/23 08:40:19;;;;;;;1.70;1.13;;;;;;;;;;5006451;28;20077;-67
2023/03/23 08:42:47;;;;;;;3.13;1.20;;;;;;;;;;5005457;28;20045;-67
2023/03/23 08:45:16;;;;;;;1.17;1.08;;;;;;;;;;5005685;28;20284;-68
2023/03/23 08:47:46;;;;;;;1.83;1.17;;;;;;;;;;5006782;28;20416;-67
2023/03/23 08:50:15;;;;;;;2.78;1.40;;;;;;;;;;5005876;28;20054;-67
2023/03/23 08:52:43;;;;;;;1.65;1.20;;;;;;;;;;5004411;28;20165;-68
2023/03/23 08:55:10;;;;;;;2.10;1.20;;;;;;;;;;4994159;28;20129;-67
2023/03/23 08:57:37;;;;;;;2.80;1.38;;;;;;;;;;4989178;28;20046;-67
2023/03/23 09:00:13;;;;;;;2.85;1.10;;;;;;;;;;4989676;28;20404;-67
2023/03/23 09:02:40;;;;;;;1.40;1.20;;;;;;;;;;4997768;28;20074;-67
2023/03/23 09:05:09;;;;;;;1.50;1.10;;;;;;;;;;5009424;28;20054;-67
2023/03/23 09:07:36;;;;;;;2.13;1.55;;;;;;;;;;5008671;28;20050;-67
2023/03/23 09:10:03;;;;;;;1.65;1.15;;;;;;;;;;5007333;28;20046;-68
2023/03/23 09:12:30;;;;;;;1.50;1.20;;;;;;;;;;5003803;28;20038;-68
2023/03/23 09:14:57;;;;;;;2.08;1.30;;;;;;;;;;5090169;28;20054;-68
2023/03/23 09:17:24;;;;;;;1.20;1.10;;;;;;;;;;5091223;28;20078;-67
2023/03/23 09:19:50;;;;;;;5.07;1.30;;;;;;;;;;5090653;28;20076;-67
2023/03/23 09:22:19;;;;;;;3.92;1.10;;;;;;;;;;5090886;28;20040;-67
2023/03/23 09:24:46;;;;;;;1.45;1.20;;;;;;;;;;5041209;28;20045;-68
2023/03/23 09:27:13;;;;;;;1.15;0.88;;;;;;;;;;5005966;28;20046;-67
2023/03/23 09:29:40;;;;;;;3.00;0.90;;;;;;;;;;4998588;28;20054;-68
2023/03/23 09:32:07;;;;;;;1.90;1.17;;;;;;;;;;5007252;28;20050;-68
2023/03/23 09:34:35;;;;;;;2.03;1.40;;;;;;;;;;5000895;28;20048;-67
2023/03/23 09:37:04;;;;;;;1.48;0.95;;;;;;;;;;5022735;28;20048;-67
2023/03/23 09:39:32;;;;;;;1.63;1.33;;;;;;;;;;5091202;28;20051;-68
2023/03/23 09:42:15;;;;;;;0.88;0.85;;;;;;;;;;5042190;28;20144;-68
2023/03/23 09:44:55;;;;;;;2.63;1.10;;;;;;;;;;5002181;28;20047;-67
2023/03/23 09:47:29;;;;;;;1.13;1.05;;;;;;;;;;4987927;28;20247;-68
2023/03/23 09:50:00;;;;;;;1.25;1.00;;;;;;;;;;5002357;28;20396;-67
2023/03/23 09:52:37;;;;;;;1.23;1.13;;;;;;;;;;5008416;28;20050;-67
2023/03/23 09:55:06;;;;;;;1.70;1.13;;;;;;;;;;4997548;28;20130;-66
2023/03/23 09:57:39;;;;;;;1.20;1.08;;;;;;;;;;5007659;28;20081;-68
2023/03/23 10:00:15;;;;;;;0.98;0.93;;;;;;;;;;5000617;28;20046;-68
2023/03/23 10:02:47;;;;;;;1.50;0.93;;;;;;;;;;4991269;28;20147;-68
2023/03/23 10:05:27;;;;;;;1.80;1.08;;;;;;;;;;4997199;28;20038;-67
2023/03/23 10:07:55;;;;;;;1.95;1.00;;;;;;;;;;5006726;28;20212;-67
2023/03/23 10:10:27;;;;;;;1.10;1.00;;;;;;;;;;5023626;28;20493;-67
2023/03/23 10:13:00;;;;;;;1.35;0.93;;;;;;;;;;5018205;28;20048;-68
2023/03/23 10:15:29;;;;;;;1.67;1.00;;;;;;;;;;5090473;28;20044;-67
2023/03/23 10:18:00;;;;;;;1.33;1.02;;;;;;;;;;5078869;28;20199;-68
2023/03/23 10:20:34;;;;;;;1.23;1.00;;;;;;;;;;5007187;28;20052;-68
2023/03/23 10:23:09;;;;;;;1.08;0.90;;;;;;;;;;5016891;23;20081;-70
2023/03/23 10:25:41;;;;;;;1.23;1.00;;;;;;;;;;4985702;28;20129;-70
2023/03/23 10:28:12;;;;;;;1.10;1.00;;;;;;;;;;4986147;28;20046;-70
2023/03/23 10:30:41;;;;;;;1.50;1.00;;;;;;;;;;4990222;28;20107;-70
2023/03/23 10:33:17;;;;;;;1.30;1.10;;;;;;;;;;4980810;28;20508;-70
2023/03/23 10:35:48;;;;;;;1.65;0.90;;;;;;;;;;4983676;28;20054;-68
2023/03/23 10:38:20;;;;;;;3.20;1.10;;;;;;;;;;4986818;28;20074;-70
2023/03/23 10:40:53;;;;;;;1.00;0.90;;;;;;;;;;4985766;28;20046;-71
2023/03/23 10:43:21;;;;;;;1.55;1.45;;;;;;;;;;5006677;28;20448;-69
2023/03/23 10:45:54;;;;;;;1.35;0.85;;;;;;;;;;4985525;28;20361;-69
2023/03/23 10:48:26;;;;;;;0.90;0.90;;;;;;;;;;4994958;28;20236;-69
2023/03/23 10:50:57;;;;;;;2.10;0.90;;;;;;;;;;4989883;28;20042;-70
2023/03/23 10:53:28;;;;;;;1.10;0.80;;;;;;;;;;4986613;28;20053;-70
2023/03/23 10:55:58;;;;;;;0.80;0.80;;;;;;;;;;4987446;28;20091;-70
2023/03/23 10:58:28;;;;;;;1.90;1.00;;;;;;;;;;4991809;28;20389;-70
2023/03/23 11:00:55;;;;;;;0.73;0.70;;;;;;;;;;4982316;28;20058;-70
2023/03/23 11:03:28;;;;;;;1.13;0.75;;;;;;;;;;4984264;28;20065;-69
2023/03/23 11:05:58;;;;;;;2.15;0.80;;;;;;;;;;4995569;28;20056;-70
2023/03/23 11:08:28;;;;;;;1.65;1.30;;;;;;;;;;4988580;28;20451;-70
2023/03/23 11:10:58;;;;;;;1.20;1.00;;;;;;;;;;4979382;28;20488;-70
2023/03/23 11:13:31;;;;;;;1.25;0.85;;;;;;;;;;4984767;28;20480;-69
2023/03/23 11:15:58;;;;;;;1.25;0.98;;;;;;;;;;4990247;28;20050;-69
2023/03/23 11:18:27;;;;;;;1.58;1.10;;;;;;;;;;4989542;28;20049;-69
2023/03/23 11:20:57;;;;;;;0.63;0.63;;;;;;;;;;4999568;28;20042;-69
2023/03/23 11:23:27;;;;;;;1.00;0.90;;;;;;;;;;4992019;28;20054;-68
2023/03/23 11:25:59;;;;;;;1.38;1.10;;;;;;;;;;4981812;28;20049;-69
2023/03/23 11:28:34;;;;;;;1.33;1.10;;;;;;;;;;4983026;28;20423;-70
2023/03/23 11:31:05;;;;;;;2.38;0.90;;;;;;;;;;4982842;28;20089;-69
2023/03/23 11:33:38;;;;;;;2.75;1.30;;;;;;;;;;4988490;28;20057;-70
2023/03/23 11:36:06;;;;;;;;;;;;;;;;;;4988359;28;20450;-70
2023/03/23 11:38:34;;;;;;;2.03;1.17;;;;;;;;;;4983621;28;20291;-70
2023/03/23 11:41:03;;;;;;;0.98;0.88;;;;;;;;;;4983540;28;20046;-70
2023/03/23 11:43:30;;;;;;;2.17;1.30;;;;;;;;;;4988174;28;20046;-70
2023/03/23 11:46:04;;;;;;;1.38;1.08;;;;;;;;;;4988149;28;20134;-70
2023/03/23 11:48:38;;;;;;;1.80;1.00;;;;;;;;;;4984108;28;20466;-70
2023/03/23 11:51:09;;;;;;;3.08;1.20;;;;;;;;;;5014112;28;20601;-71
2023/03/23 11:53:44;;;;;;;1.98;0.80;;;;;;;;;;4977361;28;20134;-70
2023/03/23 11:56:19;;;;;;;2.50;1.20;;;;;;;;;;4992613;28;20050;-70
2023/03/23 11:58:47;;;;;;;3.90;1.45;;;;;;;;;;4992118;28;20057;-71
2023/03/23 12:01:25;;;;;;;1.63;1.08;;;;;;;;;;4989739;28;20560;-71
2023/03/23 12:04:02;;;;;;;1.90;0.90;;;;;;;;;;4988679;28;20047;-72
2023/03/23 12:06:36;;;;;;;2.33;1.30;;;;;;;;;;4989370;28;20054;-71
2023/03/23 12:09:12;;;;;;;3.05;1.02;;;;;;;;;;4986745;28;20133;-71
2023/03/23 12:12:13;;;;;;;2.33;0.90;;;;;;;;;;4988842;28;20514;-71
2023/03/23 12:14:48;;;;;;;1.13;0.90;;;;;;;;;;5013685;28;20475;-71
2023/03/23 12:17:23;;;;;;;1.83;1.10;;;;;;;;;;4981126;28;20061;-71
2023/03/23 12:19:59;;;;;;;2.90;1.23;;;;;;;;;;4992786;28;20495;-69
2023/03/23 12:22:38;;;;;;;2.00;1.20;;;;;;;;;;4994041;28;20049;-69
2023/03/23 12:25:18;;;;;;;1.42;0.98;;;;;;;;;;4990126;28;20043;-70
2023/03/23 12:27:56;;;;;;;1.65;1.10;;;;;;;;;;4988261;28;20051;-70
2023/03/23 12:30:31;;;;;;;1.40;1.20;;;;;;;;;;5005615;28;20050;-69
2023/03/23 12:33:27;;;;;;;1.90;1.35;;;;;;;;;;4989029;28;20054;-69
2023/03/23 12:36:08;;;;;;;2.33;1.10;;;;;;;;;;4989364;28;20042;-69
2023/03/23 12:38:49;;;;;;;1.80;1.20;;;;;;;;;;4988047;28;20043;-69
2023/03/23 12:41:18;;;;;;;1.85;0.95;;;;;;;;;;4971052;28;20051;-69
2023/03/23 12:43:54;;;;;;;1.20;1.05;;;;;;;;;;4969437;28;20046;-70
2023/03/23 12:46:49;;;;;;;1.30;1.08;;;;;;;;;;4969671;28;20047;-69
2023/03/23 12:49:20;;;;;;;1.27;1.10;;;;;;;;;;4976409;28;20133;-69
2023/03/23 12:51:55;;;;;;;2.58;1.30;;;;;;;;;;5001474;28;20408;-69
2023/03/23 12:54:29;;;;;;;2.53;1.77;;;;;;;;;;4989033;28;20043;-69
2023/03/23 12:57:01;;;;;;;2.88;1.08;;;;;;;;;;4988401;28;20051;-69
2023/03/23 12:59:37;;;;;;;1.98;1.10;;;;;;;;;;4989254;28;20385;-70
2023/03/23 13:02:11;;;;;;;3.20;1.30;;;;;;;;;;4989101;28;20484;-70
2023/03/23 13:04:44;;;;;;;1.20;1.10;;;;;;;;;;4989120;28;20050;-70
2023/03/23 13:07:15;;;;;;;1.92;1.45;;;;;;;;;;4988547;28;20054;-69
2023/03/23 13:09:51;;;;;;;3.33;1.10;;;;;;;;;;4988742;28;20042;-70
2023/03/23 13:12:20;;;;;;;5.45;1.60;;;;;;;;;;4968485;28;20516;-69
2023/03/23 13:14:55;;;;;;;1.25;1.00;;;;;;;;;;4967169;28;20480;-69
2023/03/23 13:17:33;;;;;;;3.15;1.40;;;;;;;;;;4980232;28;20046;-69
2023/03/23 13:20:20;;;;;;;2.40;1.33;;;;;;;;;;4988927;28;20050;-69
2023/03/23 13:22:51;;;;;;;4.13;1.42;;;;;;;;;;4975127;28;20515;-70
2023/03/23 13:25:20;;;;;;;3.17;1.30;;;;;;;;;;4986106;28;20080;-69
2023/03/23 13:27:57;;;;;;;2.40;1.52;;;;;;;;;;4987190;28;20404;-70
2023/03/23 13:30:28;;;;;;;3.00;1.40;;;;;;;;;;4987949;28;20138;-70
2023/03/23 13:33:03;;;;;;;1.83;1.30;;;;;;;;;;4988835;28;20050;-69
2023/03/23 13:35:36;;;;;;;1.52;1.20;;;;;;;;;;4988656;28;20046;-70
2023/03/23 13:38:02;;;;;;;2.22;1.20;;;;;;;;;;4988921;28;20050;-69
2023/03/23 13:40:31;;;;;;;2.72;1.50;;;;;;;;;;4986574;28;20038;-70
2023/03/23 13:42:59;;;;;;;1.58;0.93;;;;;;;;;;4979941;28;20145;-70
2023/03/23 13:45:44;;;;;;;1.30;1.02;;;;;;;;;;4968850;28;20054;-70
2023/03/23 13:48:21;;;;;;;2.42;1.40;;;;;;;;;;4969088;28;20043;-69
2023/03/23 13:50:52;;;;;;;1.77;1.10;;;;;;;;;;4968707;28;20523;-69
2023/03/23 13:53:26;;;;;;;3.10;1.45;;;;;;;;;;4968856;28;20057;-70
2023/03/23 13:56:04;;;;;;;2.83;1.30;;;;;;;;;;4968781;28;20515;-70
2023/03/23 13:58:31;;;;;;;2.58;1.50;;;;;;;;;;4968679;28;20047;-69
2023/03/23 14:01:16;;;;;;;3.47;1.80;;;;;;;;;;4968908;28;20389;-69
2023/03/23 14:03:44;;;;;;;3.28;1.33;;;;;;;;;;4968271;28;20083;-70
2023/03/23 14:06:15;;;;;;;3.80;1.40;;;;;;;;;;4982455;28;20046;-69
2023/03/23 14:08:44;;;;;;;4.03;1.40;;;;;;;;;;5005578;28;20053;-70
2023/03/23 14:11:15;;;;;;;3.22;1.30;;;;;;;;;;5007697;28;20060;-70
2023/03/23 14:13:47;;;;;;;2.47;1.20;;;;;;;;;;5007695;28;20407;-69
2023/03/23 14:16:20;;;;;;;3.85;1.40;;;;;;;;;;5005355;28;20656;-70
2023/03/23 14:18:54;;;;;;;2.05;1.27;;;;;;;;;;4988089;28;20050;-70
2023/03/23 14:21:26;;;;;;;2.80;1.40;;;;;;;;;;4988598;28;20057;-70
2023/03/23 14:23:54;;;;;;;3.35;1.10;;;;;;;;;;4987966;28;20423;-70
2023/03/23 14:26:21;;;;;;;3.22;1.20;;;;;;;;;;4988184;28;20153;-69
2023/03/23 14:28:51;;;;;;;1.67;1.10;;;;;;;;;;4987355;28;20046;-69
2023/03/23 14:31:22;;;;;;;2.05;1.33;;;;;;;;;;4988323;28;20050;-68
2023/03/23 14:33:50;;;;;;;2.00;1.30;;;;;;;;;;4988240;28;20046;-69
2023/03/23 14:36:21;;;;;;;2.00;1.15;;;;;;;;;;4991608;28;20046;-69
2023/03/23 14:38:49;;;;;;;2.00;1.25;;;;;;;;;;4990708;28;20058;-69
2023/03/23 14:41:15;;;;;;;2.75;1.30;;;;;;;;;;4991399;28;20057;-70
2023/03/23 14:43:42;;;;;;;3.08;1.35;;;;;;;;;;4991289;28;20217;-70
2023/03/23 14:46:11;;;;;;;2.35;1.60;;;;;;;;;;4991563;28;20046;-70
2023/03/23 14:48:40;;;;;;;1.90;1.17;;;;;;;;;;4991177;28;20053;-69
2023/03/23 14:51:07;;;;;;;2.58;1.27;;;;;;;;;;4991466;28;20060;-69
2023/03/23 14:53:37;;;;;;;1.95;1.23;;;;;;;;;;4990797;28;20058;-69
2023/03/23 14:56:11;;;;;;;3.53;1.45;;;;;;;;;;4991096;28;20504;-69
2023/03/23 14:58:38;;;;;;;1.65;1.30;;;;;;;;;;4990837;28;20440;-70
2023/03/23 15:01:07;;;;;;;2.83;1.60;;;;;;;;;;4990760;28;20046;-69